Anthony, NM

3:28 PM MDT on October 31, 2014 (GMT -0600)
Thunderbird | Change Station
CLOSE
Current Station
Personal Weather Station
Location: El Paso, TX
Elevation: 4623 ft
Nearby Weather Stations

Elev 4623 ft 31.86 °N, 106.51 °W | Updated 1 minute ago

Partly Cloudy
Partly Cloudy
70.9 °F
Feels Like 77 °F
N
9.0
Wind Variable Wind from East
Gusts 16.0 mph

Today
High -- | Low -- °F
--% Chance of Precip.
Yesterday
High -- | Low -- °F
Precip. -- in
7:21 AM 6:17 PM
First Quarter, 59% visible
Pressure 30.05 in
Visibility 9.0 miles
Clouds Clear
Heat Index 77 °F
Dew Point 45 °F
Humidity 39%
Rainfall 0.00 in
Snow Depth Not available.
UV 4 out of 12
Pollen 4.20 out of 12
Air Quality Not available.
Flu Activity Not available.
METAR KBIF 312058Z AUTO 13013G22KT 9SM CLR 24/06 A3019 RMK AO2 SLP174 T02370056 57036 $

More Conditions Fewer Conditions

Pressure 30.05 in
Visibility 9.0 miles
Clouds Clear
Heat Index 77 °F
Dew Point 45 °F
Humidity 39%
Rainfall 0.00 in
Snow Depth Not available.
UV 4 out of 12
Pollen 4.20 out of 12
Air Quality Not available.
Flu Activity Not available.
METAR KBIF 312058Z AUTO 13013G22KT 9SM CLR 24/06 A3019 RMK AO2 SLP174 T02370056 57036 $

More Conditions Fewer Conditions

10-Day Weather Forecast

Almanac

Astronomy

Oct. 31, 2014 Rise Set
Actual Time
Civil Twilight
Nautical Twilight
Astronomical Twilight
Moon
Length of Visible Light
Length of Day
Tomorrow will be .
, % of the Moon is Illuminated

Today's Extremes

State Highs State Lows

Community

WunderPhotos

Upload Photos

1,766,734 photos uploaded!

WunderBlogs® & News

Nearby

Air Quality

  Air Quality AQ Index Pollutant
Not available.

Snow Depth

Station Depth Elevation

Earthquake Activity

City Distance Mag. Time & Date
Minimum magnitude displayed is 2.5.

Coastal Water Temperatures

Place Temperature

Nearby Weather Stations